sensor_id;sensor_type;location;lat;lon;timestamp;temperature;humidity
4429;DHT22;2227;47.810;8.810;2023-02-13T04:46:29;5.60;99.90
4429;DHT22;2227;47.810;8.810;2023-02-13T04:48:56;5.50;99.90
4429;DHT22;2227;47.810;8.810;2023-02-13T04:51:23;5.50;99.90
4429;DHT22;2227;47.810;8.810;2023-02-13T04:53:50;5.50;99.90
4429;DHT22;2227;47.810;8.810;2023-02-13T04:56:16;5.40;99.90
4429;DHT22;2227;47.810;8.810;2023-02-13T04:58:45;5.40;99.90
4429;DHT22;2227;47.810;8.810;2023-02-13T05:01:13;5.50;99.90
4429;DHT22;2227;47.810;8.810;2023-02-13T05:03:41;5.50;99.90
4429;DHT22;2227;47.810;8.810;2023-02-13T05:06:08;5.40;99.90
4429;DHT22;2227;47.810;8.810;2023-02-13T05:08:34;5.50;99.90
4429;DHT22;2227;47.810;8.810;2023-02-13T05:11:01;5.40;99.90
4429;DHT22;2227;47.810;8.810;2023-02-13T05:13:28;5.30;99.90
4429;DHT22;2227;47.810;8.810;2023-02-13T05:15:55;5.30;99.90
4429;DHT22;2227;47.810;8.810;2023-02-13T05:18:22;5.20;99.90
4429;DHT22;2227;47.810;8.810;2023-02-13T05:20:49;5.30;99.90
4429;DHT22;2227;47.810;8.810;2023-02-13T05:23:36;5.20;99.90
4429;DHT22;2227;47.810;8.810;2023-02-13T05:26:03;5.10;99.90
4429;DHT22;2227;47.810;8.810;2023-02-13T05:28:29;5.20;99.90
4429;DHT22;2227;47.810;8.810;2023-02-13T05:31:15;5.30;99.90
4429;DHT22;2227;47.810;8.810;2023-02-13T05:33:41;5.30;99.90
4429;DHT22;2227;47.810;8.810;2023-02-13T05:36:08;5.10;99.90
4429;DHT22;2227;47.810;8.810;2023-02-13T05:38:35;5.20;99.90
4429;DHT22;2227;47.810;8.810;2023-02-13T05:41:02;5.30;99.90
4429;DHT22;2227;47.810;8.810;2023-02-13T05:43:29;5.10;99.90
4429;DHT22;2227;47.810;8.810;2023-02-13T05:46:07;5.10;99.90
4429;DHT22;2227;47.810;8.810;2023-02-13T05:48:35;5.10;99.90
4429;DHT22;2227;47.810;8.810;2023-02-13T05:51:01;5.20;99.90
4429;DHT22;2227;47.810;8.810;2023-02-13T05:53:28;5.30;99.90
4429;DHT22;2227;47.810;8.810;2023-02-13T05:55:55;5.30;99.90
4429;DHT22;2227;47.810;8.810;2023-02-13T05:58:22;5.30;99.90
4429;DHT22;2227;47.810;8.810;2023-02-13T06:00:49;5.30;99.90
4429;DHT22;2227;47.810;8.810;2023-02-13T06:03:16;5.10;99.90
4429;DHT22;2227;47.810;8.810;2023-02-13T06:05:43;5.00;99.90
4429;DHT22;2227;47.810;8.810;2023-02-13T06:08:09;5.10;99.90
4429;DHT22;2227;47.810;8.810;2023-02-13T06:10:36;5.00;99.90
4429;DHT22;2227;47.810;8.810;2023-02-13T06:13:03;4.90;99.90
4429;DHT22;2227;47.810;8.810;2023-02-13T06:15:29;5.10;99.90
4429;DHT22;2227;47.810;8.810;2023-02-13T06:17:56;5.10;99.90
4429;DHT22;2227;47.810;8.810;2023-02-13T06:20:23;5.20;99.90
4429;DHT22;2227;47.810;8.810;2023-02-13T06:22:50;5.30;99.90
4429;DHT22;2227;47.810;8.810;2023-02-13T06:25:18;5.10;99.90
4429;DHT22;2227;47.810;8.810;2023-02-13T06:27:45;5.10;99.90
4429;DHT22;2227;47.810;8.810;2023-02-13T06:30:13;5.20;99.90
4429;DHT22;2227;47.810;8.810;2023-02-13T06:32:40;5.30;99.90
4429;DHT22;2227;47.810;8.810;2023-02-13T06:35:08;5.30;99.90
4429;DHT22;2227;47.810;8.810;2023-02-13T06:37:35;5.30;99.90
4429;DHT22;2227;47.810;8.810;2023-02-13T06:40:02;5.40;99.90
4429;DHT22;2227;47.810;8.810;2023-02-13T06:42:29;5.40;99.90
4429;DHT22;2227;47.810;8.810;2023-02-13T06:44:56;5.40;99.90
4429;DHT22;2227;47.810;8.810;2023-02-13T06:47:22;5.30;99.90
4429;DHT22;2227;47.810;8.810;2023-02-13T06:49:49;5.20;99.90
4429;DHT22;2227;47.810;8.810;2023-02-13T06:52:16;5.10;99.90
4429;DHT22;2227;47.810;8.810;2023-02-13T06:54:43;5.10;99.90
4429;DHT22;2227;47.810;8.810;2023-02-13T06:57:14;5.20;99.90
4429;DHT22;2227;47.810;8.810;2023-02-13T06:59:42;5.20;99.90
4429;DHT22;2227;47.810;8.810;2023-02-13T07:02:10;5.20;99.90
4429;DHT22;2227;47.810;8.810;2023-02-13T07:04:36;5.20;99.90
4429;DHT22;2227;47.810;8.810;2023-02-13T07:07:04;5.20;99.90
4429;DHT22;2227;47.810;8.810;2023-02-13T07:09:31;5.20;99.90
4429;DHT22;2227;47.810;8.810;2023-02-13T07:11:58;5.20;99.90
4429;DHT22;2227;47.810;8.810;2023-02-13T07:14:27;5.00;99.90
4429;DHT22;2227;47.810;8.810;2023-02-13T07:16:54;4.90;99.90
4429;DHT22;2227;47.810;8.810;2023-02-13T07:19:20;5.00;99.90
4429;DHT22;2227;47.810;8.810;2023-02-13T07:21:47;5.10;99.90
4429;DHT22;2227;47.810;8.810;2023-02-13T07:24:14;5.20;99.90
4429;DHT22;2227;47.810;8.810;2023-02-13T07:26:41;5.20;99.90
4429;DHT22;2227;47.810;8.810;2023-02-13T07:29:07;5.10;99.90
4429;DHT22;2227;47.810;8.810;2023-02-13T07:31:37;5.20;99.90
4429;DHT22;2227;47.810;8.810;2023-02-13T07:34:05;5.10;99.90
4429;DHT22;2227;47.810;8.810;2023-02-13T07:36:32;5.10;99.90
4429;DHT22;2227;47.810;8.810;2023-02-13T07:38:58;5.20;99.90
4429;DHT22;2227;47.810;8.810;2023-02-13T07:41:25;5.20;99.90
4429;DHT22;2227;47.810;8.810;2023-02-13T07:43:53;5.20;99.90
4429;DHT22;2227;47.810;8.810;2023-02-13T07:46:19;5.20;99.90
4429;DHT22;2227;47.810;8.810;2023-02-13T07:48:46;5.10;99.90
4429;DHT22;2227;47.810;8.810;2023-02-13T07:51:13;5.10;99.90
4429;DHT22;2227;47.810;8.810;2023-02-13T07:53:40;5.20;99.90
4429;DHT22;2227;47.810;8.810;2023-02-13T07:56:07;5.20;99.90
4429;DHT22;2227;47.810;8.810;2023-02-13T07:58:35;5.30;99.90
4429;DHT22;2227;47.810;8.810;2023-02-13T08:01:10;5.40;99.90
4429;DHT22;2227;47.810;8.810;2023-02-13T08:03:37;5.40;99.90
4429;DHT22;2227;47.810;8.810;2023-02-13T08:06:05;5.40;99.90
4429;DHT22;2227;47.810;8.810;2023-02-13T08:08:33;5.30;99.90
4429;DHT22;2227;47.810;8.810;2023-02-13T08:11:07;5.20;99.90
4429;DHT22;2227;47.810;8.810;2023-02-13T08:13:55;5.30;99.90
4429;DHT22;2227;47.810;8.810;2023-02-13T08:16:22;5.50;99.90
4429;DHT22;2227;47.810;8.810;2023-02-13T08:18:49;5.50;99.90
4429;DHT22;2227;47.810;8.810;2023-02-13T08:21:15;5.60;99.90
4429;DHT22;2227;47.810;8.810;2023-02-13T08:23:42;5.60;99.90
4429;DHT22;2227;47.810;8.810;2023-02-13T08:26:09;5.60;99.90
4429;DHT22;2227;47.810;8.810;2023-02-13T08:28:36;5.60;99.90
4429;DHT22;2227;47.810;8.810;2023-02-13T08:31:09;5.60;99.90
4429;DHT22;2227;47.810;8.810;2023-02-13T08:33:37;5.60;99.90
4429;DHT22;2227;47.810;8.810;2023-02-13T08:36:05;5.50;99.90
4429;DHT22;2227;47.810;8.810;2023-02-13T08:38:32;5.50;99.90
4429;DHT22;2227;47.810;8.810;2023-02-13T08:40:59;5.40;99.90
4429;DHT22;2227;47.810;8.810;2023-02-13T08:43:26;5.40;99.90
4429;DHT22;2227;47.810;8.810;2023-02-13T08:45:52;5.50;99.90
4429;DHT22;2227;47.810;8.810;2023-02-13T08:48:19;5.60;99.90
4429;DHT22;2227;47.810;8.810;2023-02-13T08:50:46;5.60;99.90
4429;DHT22;2227;47.810;8.810;2023-02-13T08:53:13;5.60;99.90
4429;DHT22;2227;47.810;8.810;2023-02-13T08:55:39;5.50;99.90
4429;DHT22;2227;47.810;8.810;2023-02-13T08:58:06;5.50;99.90
4429;DHT22;2227;47.810;8.810;2023-02-13T09:00:33;5.30;99.90
4429;DHT22;2227;47.810;8.810;2023-02-13T09:03:00;5.40;99.90
4429;DHT22;2227;47.810;8.810;2023-02-13T09:05:29;5.50;99.90
4429;DHT22;2227;47.810;8.810;2023-02-13T09:08:00;5.60;99.90
4429;DHT22;2227;47.810;8.810;2023-02-13T09:10:31;5.60;99.90
4429;DHT22;2227;47.810;8.810;2023-02-13T09:12:58;5.70;99.90
4429;DHT22;2227;47.810;8.810;2023-02-13T09:15:26;5.70;99.90
4429;DHT22;2227;47.810;8.810;2023-02-13T09:17:53;5.70;99.90
4429;DHT22;2227;47.810;8.810;2023-02-13T09:20:20;5.80;99.90
4429;DHT22;2227;47.810;8.810;2023-02-13T09:22:47;5.90;99.90
4429;DHT22;2227;47.810;8.810;2023-02-13T09:25:13;5.90;99.90
4429;DHT22;2227;47.810;8.810;2023-02-13T09:27:40;6.00;99.90
4429;DHT22;2227;47.810;8.810;2023-02-13T09:30:08;6.00;99.90
4429;DHT22;2227;47.810;8.810;2023-02-13T09:32:35;6.00;99.90
4429;DHT22;2227;47.810;8.810;2023-02-13T09:35:03;6.00;99.90
4429;DHT22;2227;47.810;8.810;2023-02-13T09:37:32;6.10;99.90
4429;DHT22;2227;47.810;8.810;2023-02-13T09:39:58;6.20;99.90
4429;DHT22;2227;47.810;8.810;2023-02-13T09:42:29;6.30;99.90
4429;DHT22;2227;47.810;8.810;2023-02-13T09:44:59;6.30;99.90
4429;DHT22;2227;47.810;8.810;2023-02-13T09:47:39;6.30;99.90
4429;DHT22;2227;47.810;8.810;2023-02-13T09:52:37;6.30;99.90
4429;DHT22;2227;47.810;8.810;2023-02-13T09:55:15;6.20;99.90
4429;DHT22;2227;47.810;8.810;2023-02-13T09:57:57;6.30;99.90
4429;DHT22;2227;47.810;8.810;2023-02-13T10:00:41;6.30;99.90
4429;DHT22;2227;47.810;8.810;2023-02-13T10:06:01;6.50;99.90
4429;DHT22;2227;47.810;8.810;2023-02-13T10:08:36;6.50;99.90
4429;DHT22;2227;47.810;8.810;2023-02-13T10:11:39;6.50;99.90
4429;DHT22;2227;47.810;8.810;2023-02-13T10:14:16;6.50;99.90
4429;DHT22;2227;47.810;8.810;2023-02-13T10:25:09;6.60;99.90
4429;DHT22;2227;47.810;8.810;2023-02-13T10:27:41;6.50;99.90
4429;DHT22;2227;47.810;8.810;2023-02-13T10:30:28;6.50;99.90
4429;DHT22;2227;47.810;8.810;2023-02-13T10:33:05;6.50;99.90
4429;DHT22;2227;47.810;8.810;2023-02-13T10:36:01;6.50;99.90
4429;DHT22;2227;47.810;8.810;2023-02-13T10:38:31;6.50;99.90
4429;DHT22;2227;47.810;8.810;2023-02-13T10:41:04;6.70;99.90
4429;DHT22;2227;47.810;8.810;2023-02-13T10:46:27;6.50;99.90
4429;DHT22;2227;47.810;8.810;2023-02-13T10:55:34;6.90;99.90
4429;DHT22;2227;47.810;8.810;2023-02-13T10:58:18;6.90;99.90
4429;DHT22;2227;47.810;8.810;2023-02-13T11:00:58;7.00;99.90
4429;DHT22;2227;47.810;8.810;2023-02-13T11:03:29;7.10;99.90
4429;DHT22;2227;47.810;8.810;2023-02-13T11:05:57;7.00;99.90
4429;DHT22;2227;47.810;8.810;2023-02-13T11:10:51;6.90;99.90
4429;DHT22;2227;47.810;8.810;2023-02-13T11:13:23;6.90;99.90
4429;DHT22;2227;47.810;8.810;2023-02-13T11:16:06;7.00;99.90
4429;DHT22;2227;47.810;8.810;2023-02-13T11:18:39;7.00;99.90
4429;DHT22;2227;47.810;8.810;2023-02-13T11:21:15;7.00;99.90
4429;DHT22;2227;47.810;8.810;2023-02-13T11:23:54;7.00;99.90
4429;DHT22;2227;47.810;8.810;2023-02-13T11:26:33;7.20;99.90
4429;DHT22;2227;47.810;8.810;2023-02-13T11:29:04;7.20;99.90
4429;DHT22;2227;47.810;8.810;2023-02-13T11:31:34;7.20;99.90
4429;DHT22;2227;47.810;8.810;2023-02-13T11:34:26;7.30;99.90
4429;DHT22;2227;47.810;8.810;2023-02-13T11:37:16;7.30;99.90
4429;DHT22;2227;47.810;8.810;2023-02-13T11:39:45;7.40;99.90
4429;DHT22;2227;47.810;8.810;2023-02-13T11:42:14;7.40;99.90
4429;DHT22;2227;47.810;8.810;2023-02-13T11:44:43;7.50;99.90
4429;DHT22;2227;47.810;8.810;2023-02-13T11:47:13;7.50;99.90
4429;DHT22;2227;47.810;8.810;2023-02-13T11:49:45;7.50;99.90
4429;DHT22;2227;47.810;8.810;2023-02-13T11:52:25;7.60;99.90
4429;DHT22;2227;47.810;8.810;2023-02-13T11:55:44;7.50;99.90
4429;DHT22;2227;47.810;8.810;2023-02-13T12:00:38;7.50;99.90
4429;DHT22;2227;47.810;8.810;2023-02-13T12:06:13;7.50;99.90
4429;DHT22;2227;47.810;8.810;2023-02-13T12:08:43;7.70;99.90
4429;DHT22;2227;47.810;8.810;2023-02-13T12:13:52;7.80;99.90
4429;DHT22;2227;47.810;8.810;2023-02-13T12:18:59;7.90;99.90
4429;DHT22;2227;47.810;8.810;2023-02-13T12:21:55;7.90;99.90
4429;DHT22;2227;47.810;8.810;2023-02-13T12:28:05;8.10;99.90
4429;DHT22;2227;47.810;8.810;2023-02-13T12:30:35;8.10;99.90
4429;DHT22;2227;47.810;8.810;2023-02-13T12:33:28;8.10;99.90
4429;DHT22;2227;47.810;8.810;2023-02-13T12:41:34;8.20;99.90
4429;DHT22;2227;47.810;8.810;2023-02-13T12:44:31;8.10;99.90
4429;DHT22;2227;47.810;8.810;2023-02-13T12:54:59;8.20;99.90
4429;DHT22;2227;47.810;8.810;2023-02-13T12:57:54;8.30;99.90
4429;DHT22;2227;47.810;8.810;2023-02-13T13:03:35;8.40;99.90
4429;DHT22;2227;47.810;8.810;2023-02-13T13:06:17;8.50;99.90
4429;DHT22;2227;47.810;8.810;2023-02-13T13:22:33;8.10;99.90
4429;DHT22;2227;47.810;8.810;2023-02-13T13:27:51;8.30;99.90
4429;DHT22;2227;47.810;8.810;2023-02-13T13:30:34;8.40;99.90
4429;DHT22;2227;47.810;8.810;2023-02-13T13:33:15;8.50;99.90
4429;DHT22;2227;47.810;8.810;2023-02-13T13:36:13;8.40;99.90
4429;DHT22;2227;47.810;8.810;2023-02-13T13:39:14;8.30;99.90
4429;DHT22;2227;47.810;8.810;2023-02-13T13:41:54;8.30;99.90
4429;DHT22;2227;47.810;8.810;2023-02-13T13:44:47;8.40;99.90
4429;DHT22;2227;47.810;8.810;2023-02-13T13:50:25;8.40;99.90
4429;DHT22;2227;47.810;8.810;2023-02-13T14:11:56;8.40;99.90
4429;DHT22;2227;47.810;8.810;2023-02-13T14:16:55;8.50;99.90
4429;DHT22;2227;47.810;8.810;2023-02-13T14:21:52;8.30;99.90
4429;DHT22;2227;47.810;8.810;2023-02-13T14:24:19;8.40;99.90
4429;DHT22;2227;47.810;8.810;2023-02-13T14:26:57;8.50;99.90
4429;DHT22;2227;47.810;8.810;2023-02-13T14:29:32;8.60;99.90
4429;DHT22;2227;47.810;8.810;2023-02-13T14:32:01;8.80;99.90
4429;DHT22;2227;47.810;8.810;2023-02-13T14:34:32;9.00;99.90
4429;DHT22;2227;47.810;8.810;2023-02-13T14:37:20;9.20;99.90
4429;DHT22;2227;47.810;8.810;2023-02-13T14:40:10;9.10;99.90
4429;DHT22;2227;47.810;8.810;2023-02-13T14:42:38;9.00;99.90
4429;DHT22;2227;47.810;8.810;2023-02-13T14:45:14;9.20;99.90
4429;DHT22;2227;47.810;8.810;2023-02-13T14:47:48;8.60;99.90
4429;DHT22;2227;47.810;8.810;2023-02-13T14:50:37;8.80;99.90
4429;DHT22;2227;47.810;8.810;2023-02-13T14:53:13;9.30;99.90
4429;DHT22;2227;47.810;8.810;2023-02-13T14:55:44;9.70;99.90
4429;DHT22;2227;47.810;8.810;2023-02-13T14:58:17;10.20;99.90
4429;DHT22;2227;47.810;8.810;2023-02-13T15:05:50;11.00;99.90
4429;DHT22;2227;47.810;8.810;2023-02-13T15:08:27;11.30;99.90
4429;DHT22;2227;47.810;8.810;2023-02-13T15:10:56;11.60;99.90
4429;DHT22;2227;47.810;8.810;2023-02-13T15:13:32;11.80;99.90
4429;DHT22;2227;47.810;8.810;2023-02-13T15:16:09;11.90;99.90
4429;DHT22;2227;47.810;8.810;2023-02-13T15:18:41;12.00;99.90
4429;DHT22;2227;47.810;8.810;2023-02-13T15:21:15;11.90;99.90
4429;DHT22;2227;47.810;8.810;2023-02-13T15:23:43;11.70;99.90
4429;DHT22;2227;47.810;8.810;2023-02-13T15:26:20;11.60;99.90
4429;DHT22;2227;47.810;8.810;2023-02-13T15:28:58;11.70;99.90
4429;DHT22;2227;47.810;8.810;2023-02-13T15:31:29;11.50;99.90
4429;DHT22;2227;47.810;8.810;2023-02-13T15:33:58;11.20;99.90
4429;DHT22;2227;47.810;8.810;2023-02-13T15:36:34;11.00;99.90
4429;DHT22;2227;47.810;8.810;2023-02-13T15:39:03;10.60;99.90
4429;DHT22;2227;47.810;8.810;2023-02-13T15:41:38;10.30;99.90
4429;DHT22;2227;47.810;8.810;2023-02-13T15:44:06;10.10;99.90
4429;DHT22;2227;47.810;8.810;2023-02-13T15:46:34;9.70;99.90
4429;DHT22;2227;47.810;8.810;2023-02-13T15:49:16;9.50;99.90
4429;DHT22;2227;47.810;8.810;2023-02-13T15:51:43;9.10;99.90
4429;DHT22;2227;47.810;8.810;2023-02-13T15:54:31;8.90;99.90
4429;DHT22;2227;47.810;8.810;2023-02-13T15:57:02;8.80;99.90
4429;DHT22;2227;47.810;8.810;2023-02-13T15:59:37;8.60;99.90
4429;DHT22;2227;47.810;8.810;2023-02-13T16:02:11;8.30;99.90
4429;DHT22;2227;47.810;8.810;2023-02-13T16:04:40;8.10;99.90
4429;DHT22;2227;47.810;8.810;2023-02-13T16:07:11;7.90;99.90
4429;DHT22;2227;47.810;8.810;2023-02-13T16:09:39;7.70;99.90
4429;DHT22;2227;47.810;8.810;2023-02-13T16:12:20;7.40;99.90
4429;DHT22;2227;47.810;8.810;2023-02-13T16:14:50;7.30;99.90
4429;DHT22;2227;47.810;8.810;2023-02-13T16:17:32;7.10;99.90
4429;DHT22;2227;47.810;8.810;2023-02-13T16:20:06;6.90;99.90
4429;DHT22;2227;47.810;8.810;2023-02-13T16:22:43;6.60;99.90
4429;DHT22;2227;47.810;8.810;2023-02-13T16:25:33;6.50;99.90
4429;DHT22;2227;47.810;8.810;2023-02-13T16:28:04;6.30;99.90
4429;DHT22;2227;47.810;8.810;2023-02-13T16:30:42;6.20;99.90
4429;DHT22;2227;47.810;8.810;2023-02-13T16:48:43;5.30;99.90
4429;DHT22;2227;47.810;8.810;2023-02-13T16:51:10;5.20;99.90
4429;DHT22;2227;47.810;8.810;2023-02-13T16:53:37;4.90;99.90
4429;DHT22;2227;47.810;8.810;2023-02-13T16:56:09;4.80;99.90
4429;DHT22;2227;47.810;8.810;2023-02-13T16:58:36;4.70;99.90
4429;DHT22;2227;47.810;8.810;2023-02-13T17:01:03;4.60;99.90
4429;DHT22;2227;47.810;8.810;2023-02-13T17:03:31;4.70;99.90
4429;DHT22;2227;47.810;8.810;2023-02-13T17:06:01;4.70;99.90
4429;DHT22;2227;47.810;8.810;2023-02-13T17:08:30;4.70;99.90
4429;DHT22;2227;47.810;8.810;2023-02-13T17:11:05;4.60;99.90
4429;DHT22;2227;47.810;8.810;2023-02-13T17:13:32;4.50;99.90
4429;DHT22;2227;47.810;8.810;2023-02-13T17:15:59;4.40;99.90
4429;DHT22;2227;47.810;8.810;2023-02-13T17:18:26;4.40;99.90
4429;DHT22;2227;47.810;8.810;2023-02-13T17:20:53;4.30;99.90
4429;DHT22;2227;47.810;8.810;2023-02-13T17:23:22;4.30;99.90
4429;DHT22;2227;47.810;8.810;2023-02-13T17:25:51;4.30;99.90
4429;DHT22;2227;47.810;8.810;2023-02-13T17:28:22;4.30;99.90
4429;DHT22;2227;47.810;8.810;2023-02-13T17:30:51;4.30;99.90
4429;DHT22;2227;47.810;8.810;2023-02-13T17:33:24;4.30;99.90
4429;DHT22;2227;47.810;8.810;2023-02-13T17:35:52;4.20;99.90
4429;DHT22;2227;47.810;8.810;2023-02-13T17:38:20;4.20;99.90
4429;DHT22;2227;47.810;8.810;2023-02-13T17:40:47;4.20;99.90
4429;DHT22;2227;47.810;8.810;2023-02-13T17:43:16;4.10;99.90
4429;DHT22;2227;47.810;8.810;2023-02-13T17:45:44;4.00;99.90
4429;DHT22;2227;47.810;8.810;2023-02-13T17:48:11;4.10;99.90
4429;DHT22;2227;47.810;8.810;2023-02-13T17:50:37;4.00;99.90
4429;DHT22;2227;47.810;8.810;2023-02-13T17:53:16;3.90;99.90
4429;DHT22;2227;47.810;8.810;2023-02-13T17:55:44;3.90;99.90
4429;DHT22;2227;47.810;8.810;2023-02-13T17:58:10;3.90;99.90
4429;DHT22;2227;47.810;8.810;2023-02-13T18:00:37;3.80;99.90
4429;DHT22;2227;47.810;8.810;2023-02-13T18:03:04;3.80;99.90
4429;DHT22;2227;47.810;8.810;2023-02-13T18:05:31;3.70;99.90
4429;DHT22;2227;47.810;8.810;2023-02-13T18:07:59;3.60;99.90
4429;DHT22;2227;47.810;8.810;2023-02-13T18:10:30;3.40;99.90
4429;DHT22;2227;47.810;8.810;2023-02-13T18:12:57;3.20;99.90
4429;DHT22;2227;47.810;8.810;2023-02-13T18:15:34;3.20;99.90
4429;DHT22;2227;47.810;8.810;2023-02-13T18:18:01;3.20;99.90
4429;DHT22;2227;47.810;8.810;2023-02-13T18:20:28;3.30;99.90
4429;DHT22;2227;47.810;8.810;2023-02-13T18:22:54;3.30;99.90
4429;DHT22;2227;47.810;8.810;2023-02-13T18:25:21;3.20;99.90
4429;DHT22;2227;47.810;8.810;2023-02-13T18:27:49;3.20;99.90
4429;DHT22;2227;47.810;8.810;2023-02-13T18:30:18;3.20;99.90
4429;DHT22;2227;47.810;8.810;2023-02-13T18:32:49;3.10;99.90
4429;DHT22;2227;47.810;8.810;2023-02-13T18:35:16;3.10;99.90
4429;DHT22;2227;47.810;8.810;2023-02-13T18:37:44;3.20;99.90
4429;DHT22;2227;47.810;8.810;2023-02-13T18:40:11;3.10;99.90
4429;DHT22;2227;47.810;8.810;2023-02-13T18:42:40;3.20;99.90
4429;DHT22;2227;47.810;8.810;2023-02-13T18:45:07;3.20;99.90
4429;DHT22;2227;47.810;8.810;2023-02-13T18:47:33;3.20;99.90
4429;DHT22;2227;47.810;8.810;2023-02-13T18:50:00;3.10;99.90
4429;DHT22;2227;47.810;8.810;2023-02-13T18:52:27;3.20;99.90
4429;DHT22;2227;47.810;8.810;2023-02-13T18:54:53;3.30;99.90
4429;DHT22;2227;47.810;8.810;2023-02-13T18:57:21;3.30;99.90
4429;DHT22;2227;47.810;8.810;2023-02-13T18:59:47;3.30;99.90
4429;DHT22;2227;47.810;8.810;2023-02-13T19:02:14;3.30;99.90
4429;DHT22;2227;47.810;8.810;2023-02-13T19:04:41;3.30;99.90
4429;DHT22;2227;47.810;8.810;2023-02-13T19:07:07;3.40;99.90
4429;DHT22;2227;47.810;8.810;2023-02-13T19:09:34;3.50;99.90
4429;DHT22;2227;47.810;8.810;2023-02-13T19:12:06;3.50;99.90
4429;DHT22;2227;47.810;8.810;2023-02-13T19:14:32;3.30;99.90
4429;DHT22;2227;47.810;8.810;2023-02-13T19:16:59;3.20;99.90
4429;DHT22;2227;47.810;8.810;2023-02-13T19:19:26;3.30;99.90
4429;DHT22;2227;47.810;8.810;2023-02-13T19:21:53;3.30;99.90
4429;DHT22;2227;47.810;8.810;2023-02-13T19:24:19;3.60;99.90
4429;DHT22;2227;47.810;8.810;2023-02-13T19:26:46;3.40;99.90
4429;DHT22;2227;47.810;8.810;2023-02-13T19:29:13;3.50;99.90
4429;DHT22;2227;47.810;8.810;2023-02-13T19:31:39;3.50;99.90
4429;DHT22;2227;47.810;8.810;2023-02-13T19:34:07;3.40;99.90
4429;DHT22;2227;47.810;8.810;2023-02-13T19:36:33;3.60;99.90
4429;DHT22;2227;47.810;8.810;2023-02-13T19:39:02;3.80;99.90
4429;DHT22;2227;47.810;8.810;2023-02-13T19:41:30;4.00;99.90
4429;DHT22;2227;47.810;8.810;2023-02-13T19:43:58;4.00;99.90
4429;DHT22;2227;47.810;8.810;2023-02-13T19:46:30;4.10;99.90
4429;DHT22;2227;47.810;8.810;2023-02-13T19:48:57;3.90;99.90
4429;DHT22;2227;47.810;8.810;2023-02-13T19:51:27;3.90;99.90
4429;DHT22;2227;47.810;8.810;2023-02-13T19:53:55;4.00;99.90
4429;DHT22;2227;47.810;8.810;2023-02-13T19:56:23;4.20;99.90
4429;DHT22;2227;47.810;8.810;2023-02-13T19:58:50;4.10;99.90
4429;DHT22;2227;47.810;8.810;2023-02-13T20:01:18;4.10;99.90
4429;DHT22;2227;47.810;8.810;2023-02-13T20:03:46;4.20;99.90
4429;DHT22;2227;47.810;8.810;2023-02-13T20:06:20;4.10;99.90
4429;DHT22;2227;47.810;8.810;2023-02-13T20:08:48;4.20;99.90
4429;DHT22;2227;47.810;8.810;2023-02-13T20:11:16;4.20;99.90
4429;DHT22;2227;47.810;8.810;2023-02-13T20:13:43;4.30;99.90
4429;DHT22;2227;47.810;8.810;2023-02-13T20:16:13;4.40;99.90
4429;DHT22;2227;47.810;8.810;2023-02-13T20:18:40;4.40;99.90
4429;DHT22;2227;47.810;8.810;2023-02-13T20:21:12;4.40;99.90
4429;DHT22;2227;47.810;8.810;2023-02-13T20:23:40;4.50;99.90
4429;DHT22;2227;47.810;8.810;2023-02-13T20:26:11;4.40;99.90
4429;DHT22;2227;47.810;8.810;2023-02-13T20:28:40;4.30;99.90
4429;DHT22;2227;47.810;8.810;2023-02-13T20:31:12;4.40;99.90
4429;DHT22;2227;47.810;8.810;2023-02-13T20:33:39;4.50;99.90
4429;DHT22;2227;47.810;8.810;2023-02-13T20:36:20;4.50;99.90
4429;DHT22;2227;47.810;8.810;2023-02-13T20:38:48;4.40;99.90
4429;DHT22;2227;47.810;8.810;2023-02-13T20:41:21;4.50;99.90
4429;DHT22;2227;47.810;8.810;2023-02-13T20:43:48;4.50;99.90
4429;DHT22;2227;47.810;8.810;2023-02-13T20:46:15;4.60;99.90
4429;DHT22;2227;47.810;8.810;2023-02-13T20:48:45;4.60;99.90
4429;DHT22;2227;47.810;8.810;2023-02-13T20:51:13;4.50;99.90
4429;DHT22;2227;47.810;8.810;2023-02-13T20:53:40;4.50;99.90
4429;DHT22;2227;47.810;8.810;2023-02-13T20:56:13;4.60;99.90
4429;DHT22;2227;47.810;8.810;2023-02-13T20:58:41;4.60;99.90
4429;DHT22;2227;47.810;8.810;2023-02-13T21:01:16;4.60;99.90
4429;DHT22;2227;47.810;8.810;2023-02-13T21:03:44;4.70;99.90
4429;DHT22;2227;47.810;8.810;2023-02-13T21:06:13;4.60;99.90
4429;DHT22;2227;47.810;8.810;2023-02-13T21:08:42;4.60;99.90
4429;DHT22;2227;47.810;8.810;2023-02-13T21:11:09;4.60;99.90
4429;DHT22;2227;47.810;8.810;2023-02-13T21:13:35;4.60;99.90
4429;DHT22;2227;47.810;8.810;2023-02-13T21:16:11;4.60;99.90
4429;DHT22;2227;47.810;8.810;2023-02-13T21:18:39;4.60;99.90
4429;DHT22;2227;47.810;8.810;2023-02-13T21:21:08;4.60;99.90
4429;DHT22;2227;47.810;8.810;2023-02-13T21:23:35;4.60;99.90
4429;DHT22;2227;47.810;8.810;2023-02-13T21:26:09;4.70;99.90
4429;DHT22;2227;47.810;8.810;2023-02-13T21:28:37;4.60;99.90
4429;DHT22;2227;47.810;8.810;2023-02-13T21:31:09;4.60;99.90
4429;DHT22;2227;47.810;8.810;2023-02-13T21:33:36;4.30;99.90
4429;DHT22;2227;47.810;8.810;2023-02-13T21:36:05;4.10;99.90
4429;DHT22;2227;47.810;8.810;2023-02-13T21:38:33;4.00;99.90
4429;DHT22;2227;47.810;8.810;2023-02-13T21:43:31;3.70;99.90
4429;DHT22;2227;47.810;8.810;2023-02-13T21:46:16;3.60;99.90
4429;DHT22;2227;47.810;8.810;2023-02-13T21:48:45;3.70;99.90
4429;DHT22;2227;47.810;8.810;2023-02-13T21:51:17;3.90;99.90
4429;DHT22;2227;47.810;8.810;2023-02-13T21:53:45;3.80;99.90
4429;DHT22;2227;47.810;8.810;2023-02-13T21:56:14;3.60;99.90
4429;DHT22;2227;47.810;8.810;2023-02-13T21:58:42;3.70;99.90
4429;DHT22;2227;47.810;8.810;2023-02-13T22:01:15;3.80;99.90
4429;DHT22;2227;47.810;8.810;2023-02-13T22:03:57;3.80;99.90
4429;DHT22;2227;47.810;8.810;2023-02-13T22:06:27;3.90;99.90
4429;DHT22;2227;47.810;8.810;2023-02-13T22:08:56;4.00;99.90
4429;DHT22;2227;47.810;8.810;2023-02-13T22:11:25;4.10;99.90
4429;DHT22;2227;47.810;8.810;2023-02-13T22:13:56;4.10;99.90
4429;DHT22;2227;47.810;8.810;2023-02-13T22:16:25;4.00;99.90
4429;DHT22;2227;47.810;8.810;2023-02-13T22:18:52;4.00;99.90
4429;DHT22;2227;47.810;8.810;2023-02-13T22:21:22;3.90;99.90
4429;DHT22;2227;47.810;8.810;2023-02-13T22:23:49;3.90;99.90
4429;DHT22;2227;47.810;8.810;2023-02-13T22:26:27;4.00;99.90
4429;DHT22;2227;47.810;8.810;2023-02-13T22:28:59;4.00;99.90
4429;DHT22;2227;47.810;8.810;2023-02-13T22:31:26;4.00;99.90
4429;DHT22;2227;47.810;8.810;2023-02-13T22:33:54;4.00;99.90
4429;DHT22;2227;47.810;8.810;2023-02-13T22:36:33;4.00;99.90
4429;DHT22;2227;47.810;8.810;2023-02-13T22:39:00;3.80;99.90
4429;DHT22;2227;47.810;8.810;2023-02-13T22:41:27;3.60;99.90
4429;DHT22;2227;47.810;8.810;2023-02-13T22:43:54;3.70;99.90
4429;DHT22;2227;47.810;8.810;2023-02-13T22:46:24;3.60;99.90
4429;DHT22;2227;47.810;8.810;2023-02-13T22:48:51;3.60;99.90
4429;DHT22;2227;47.810;8.810;2023-02-13T22:51:30;3.60;99.90
4429;DHT22;2227;47.810;8.810;2023-02-13T22:53:57;3.60;99.90
4429;DHT22;2227;47.810;8.810;2023-02-13T22:56:26;3.60;99.90
4429;DHT22;2227;47.810;8.810;2023-02-13T22:58:54;3.70;99.90
4429;DHT22;2227;47.810;8.810;2023-02-13T23:01:22;3.60;99.90
4429;DHT22;2227;47.810;8.810;2023-02-13T23:03:50;3.60;99.90
4429;DHT22;2227;47.810;8.810;2023-02-13T23:06:17;3.50;99.90
4429;DHT22;2227;47.810;8.810;2023-02-13T23:08:44;3.60;99.90
4429;DHT22;2227;47.810;8.810;2023-02-13T23:11:14;3.50;99.90
4429;DHT22;2227;47.810;8.810;2023-02-13T23:14:00;3.40;99.90
4429;DHT22;2227;47.810;8.810;2023-02-13T23:16:27;3.40;99.90
4429;DHT22;2227;47.810;8.810;2023-02-13T23:18:55;3.20;99.90
4429;DHT22;2227;47.810;8.810;2023-02-13T23:21:23;3.20;99.90
4429;DHT22;2227;47.810;8.810;2023-02-13T23:23:50;3.20;99.90
4429;DHT22;2227;47.810;8.810;2023-02-13T23:26:17;3.30;99.90
4429;DHT22;2227;47.810;8.810;2023-02-13T23:28:44;3.30;99.90